Terminal Aerodrome Forecast
Issued by NWS

Home | Current Version | Previous Version | Text Only | Print | Product List | Glossary On
Versions: 1 2 3 4 5 6 7 8 9 10 11 12 13 14 15 16 17 18 19 20 21 22 23 24 25 26 27 28 29
078
FTUS43 KDVN 221409 AAA
TAFCID
TAF AMD
KCID 221409Z 2214/2312 33007KT 3SM BR OVC007
      TEMPO 2214/2216 30005KT 1/2SM FZFG VV002
     FM222000 34011KT P6SM OVC015
     FM230200 33007KT 2SM BR BKN009=

USA.gov is the U.S. government's official web portal to all federal, state and local government web resources and services.